AirNav   Phillips 66 Aviation Fuel
 
 594 users online  

CL35 Warner Springs Gliderport
Warner Springs, California, USA

GOING TO WARNER SPRINGS?


FAA INFORMATION EFFECTIVE 08 NOVEMBER 2018

Location

FAA Identifier: CL35
Lat/Long: 33-17-04.2100N / 116-40-10.7650W
33-17.070167N / 116-40.179417W
33.2845028 / -116.6696569
(estimated)
Elevation: 2880 ft. / 878 m (estimated)
Variation: 13E (1985)
From city: 2 miles E of WARNER SPRINGS, CA
Time zone: UTC -8 (UTC -7 during Daylight Saving Time)
Zip code: 92086

Gliderport Operations

Gliderport use: Private use. Permission required prior to landing
Activation date: 10/1984
Control tower: no
ARTCC: LOS ANGELES CENTER
FSS: SAN DIEGO FLIGHT SERVICE STATION
Attendance: 0900-1700
Wind indicator: yes
Segmented circle: yes
Landing fee: yes

Gliderport Communications

UNICOM: 122.8
WX AWOS-3P at L08 (18 nm E): 126.575 (760-767-3308)
WX ASOS at RNM (19 nm SW): 132.025 (760-789-0736)

Nearby radio navigation aids

VOR radial/distance  VOR name  Freq  Var
JLIr319/9.6JULIAN VORTAC114.0015E
TRMr218/32.8THERMAL VORTAC116.2013E
PSPr186/37.1PALM SPRINGS VORTAC115.5013E
OCNr071/37.6OCEANSIDE VORTAC115.3015E
HDFr125/(39.2)HOMELAND VOR113.4014E

Gliderport Services

Runway Information

Runway 8/26

Dimensions: 3500 x 70 ft. / 1067 x 21 m
Surface: asphalt
RUNWAY 8  RUNWAY 26
Latitude: 33-17.060333N33-17.080000N
Longitude: 116-40.522667W116-39.836167W
Elevation: 2873.0 ft.2914.0 ft.
Traffic pattern: leftleft
Obstructions: none200 ft. hill, 5200 ft. from runway

Gliderport Ownership and Management from official FAA records

Ownership: Privately-owned
Owner: WARNER SPRINGS RANCH RESORT, LLC
31930 HWY 79
WARNER SPRINGS, CA 92086
Phone 760-782-4200
SKY SAILING 31930 HWY 79.
Manager: BRET WILLAT
SKY SAILING 31930 HWY 79
WARNER SPRINGS, CA 92086
Phone 760-782-0404
LEASEE.

Gliderport Operational Statistics

Aircraft based on the field: 80
Single engine airplanes: 10
Gliders airplanes: 70
    

Instrument Procedures

There are no published instrument procedures at CL35.

Some nearby airports with instrument procedures:

L08 - Borrego Valley Airport (18 nm E)
KRNM - Ramona Airport (19 nm SW)
F70 - French Valley Airport (29 nm NW)
L18 - Fallbrook Community Airpark (29 nm W)
KSEE - Gillespie Field Airport (31 nm SW)
 
Loc | Ops | Rwys | IFR | FBO | Links
Com | Nav | Svcs | Stats | Notes


 
Area around CL35 (Warner Springs Gliderport)
 
Road maps at: MapQuest Bing Google
 
Aerial photo
WARNING: Photo may not be current or correct
Aerial photo of CL35 (Warner Springs Gliderport)
Photo by Steve Lupinacci
Photo taken 27-May-2008

Do you have a better or more recent aerial photo of Warner Springs Gliderport that you would like to share? If so, please send us your photo.

 
Sectional chart

 
Airport distance calculator
Flying to Warner Springs Gliderport? Find the distance to fly.

From to CL35

Sunrise and sunset
Times for 18-Nov-2018
 Local
(UTC-8)
 Zulu
(UTC)
Morning civil twilight05:5513:55
Sunrise06:2214:22
Sunset16:4200:42
Evening civil twilight17:0901:09

Current date and time
Zulu (UTC)  18-Nov-2018 13:15:26
Local (UTC-8)  18-Nov-2018 05:15:26
 
METAR
KL08 
18nm E 
181255Z AUTO 01005KT 10SM CLR 06/M04 A3005 RMK AO2
KRNM 
20nm SW 
181253Z AUTO 00000KT 10SM CLR 04/M04 A3007 RMK AO2 SLP179 T00391039 $
KF70 
29nm NW 
181255Z AUTO 00000KT 10SM CLR 08/02 A3007 RMK AO1
KL18 
29nm W 
181255Z AUTO 02005KT 10SM CLR 12/02 A3006 RMK AO2
KSEE 
32nm SW 
181255Z AUTO 00000KT 10SM CLR 08/04 A3006 RMK AO2
KCRQ 
32nm W 
181253Z 08003KT 10SM CLR 12/06 A3004 RMK AO2 SLP172 T01170056
KTRM 
33nm NE 
181252Z AUTO 29003KT 10SM CLR 07/02 A3003 RMK AO2 SLP170 T00720017
KPSP 
33nm N 
181253Z AUTO 33003KT 10SM CLR 13/M02 A3006 RMK AO2 SLP179 T01281017
KNFG 
33nm W 
181255Z AUTO 07003KT 10SM CLR 07/06 A3006 RMK AO2 SLP179 T00670056
KNKX 
34nm SW 
181255Z 09005KT 10SM CLR 11/05 A3005 RMK AO2 SLP172 T01060050 $
TAF
KCRQ 
32nm W 
181140Z 1812/1912 27004KT P6SM FEW010 SCT250
KTRM 
33nm NE 
181140Z 1812/1912 33005KT P6SM SCT250= TAF KCRQ 181140Z 1812/1912 27004KT P6SM FEW010 SCT250
KPSP 
33nm N 
181140Z 1812/1912 32005KT P6SM SCT250
KNFG 
33nm W 
1809/1909 VRB05KT 9999 SKC QNH3003INS BECMG 1819/1821 22007KT 9999 SKC QNH2997INS BECMG 1902/1904 VRB05KT 9999 SKC QNH3002INS AUTOMATED SENSOR METWATCH 1809 TIL 1915 T08/1809Z T20/1821Z COR 0915
KNKX 
34nm SW 
1809/1909 VRB05KT 9999 SKC QNH3002INS BECMG 1818/1820 30008KT 9999 SKC QNH2998INS BECMG 1903/1905 VRB05KT 9999 SKC QNH3003INS T11/1811Z T22/1821Z
NOTAMs
Click for the latest NOTAMs
NOTAMs are issued by the DoD/FAA and will open in a separate window not controlled by AirNav.

 

 
 

Would you like to see your business listed on this page?

 If your business provides an interesting product or service to pilots, flight crews, aircraft, or users of the Warner Springs Gliderport, you should consider listing it here.  To start the listing process, click on the button below
 
Add a business
 

Other Pages about Warner Springs Gliderport

www.agcsc.org/warner_springs_info.html
 
Update a link
 
Copyright © AirNav, LLC. All rights reserved. Privacy Policy  Contact